Time;durP1;ratioP1;P1;durP2;ratioP2;P2;SDS_P1;SDS_P2;PMS_P1;PMS_P2;Temp;Humidity;BMP_temperature;BMP_pressure;BME280_temperature;BME280_humidity;BME280_pressure;Samples;Min_cycle;Max_cycle;Signal;HPM_P1;HPM_P2
2021/01/31 00:00:48;;;;;;;64.07;40.48;;;;;;;-1.59;81.10;98258.96;1772295;81;21058;-52
2021/01/31 00:03:22;;;;;;;61.75;40.83;;;;;;;-1.58;80.80;98266.50;1768621;80;21019;-52
2021/01/31 00:05:51;;;;;;;60.38;40.38;;;;;;;-1.64;80.52;98270.19;1772573;81;21668;-52
2021/01/31 00:08:20;;;;;;;68.95;44.35;;;;;;;-1.66;80.46;98284.40;1768993;80;22763;-52
2021/01/31 00:10:53;;;;;;;67.92;42.70;;;;;;;-1.69;80.47;98291.63;1772333;81;21074;-52
2021/01/31 00:13:19;;;;;;;56.65;39.98;;;;;;;-1.66;80.41;98238.10;1769002;81;21014;-52
2021/01/31 00:15:49;;;;;;;61.68;39.95;;;;;;;-1.66;80.28;98238.10;1772520;81;20995;-52
2021/01/31 00:18:20;;;;;;;69.25;43.20;;;;;;;-1.67;80.23;98224.89;1769017;81;21050;-53
2021/01/31 00:20:51;;;;;;;60.35;40.23;;;;;;;-1.68;80.10;98227.32;1772423;81;21398;-53
2021/01/31 00:23:18;;;;;;;60.60;39.92;;;;;;;-1.69;80.18;98240.48;1769061;81;21597;-53
2021/01/31 00:25:47;;;;;;;67.80;44.70;;;;;;;-1.67;80.04;98255.84;1772496;81;21047;-53
2021/01/31 00:28:15;;;;;;;53.38;33.30;;;;;;;-1.65;80.02;98271.23;1768969;81;21046;-53
2021/01/31 00:30:45;;;;;;;62.05;42.45;;;;;;;-1.69;79.69;98275.48;1772509;81;21034;-53
2021/01/31 00:33:19;;;;;;;62.20;40.85;;;;;;;-1.76;79.55;98277.81;1768852;81;21629;-52
2021/01/31 00:35:48;;;;;;;61.35;41.77;;;;;;;-1.83;79.60;98274.98;1772578;81;21046;-52
2021/01/31 00:38:18;;;;;;;59.93;40.17;;;;;;;-1.86;79.60;98278.98;1768767;81;21022;-52
2021/01/31 00:40:46;;;;;;;61.45;43.70;;;;;;;-1.89;79.54;98286.73;1772450;81;21545;-52
2021/01/31 00:43:14;;;;;;;68.05;43.38;;;;;;;-1.93;79.57;98300.69;1768895;80;21653;-52
2021/01/31 00:45:41;;;;;;;66.80;42.85;;;;;;;-1.93;79.47;98307.92;1772491;81;21445;-53
2021/01/31 00:48:10;;;;;;;68.97;48.23;;;;;;;-1.95;79.47;98315.44;1768857;81;21062;-53
2021/01/31 00:50:38;;;;;;;68.97;43.50;;;;;;;-2.01;79.29;98313.72;1772603;81;21058;-53
2021/01/31 00:53:08;;;;;;;68.92;48.28;;;;;;;-2.02;79.42;98320.16;1768978;80;21058;-53
2021/01/31 00:55:37;;;;;;;66.65;46.45;;;;;;;-2.05;79.41;98326.83;1772417;81;21131;-53
2021/01/31 00:58:05;;;;;;;67.03;43.58;;;;;;;-2.01;79.51;98327.17;1768951;81;21204;-53
2021/01/31 01:00:38;;;;;;;64.17;42.00;;;;;;;-2.00;79.47;98333.66;1772460;81;20983;-53
2021/01/31 01:03:08;;;;;;;63.38;45.50;;;;;;;-2.00;79.47;98330.13;1768934;80;21050;-53
2021/01/31 01:05:43;;;;;;;57.98;38.17;;;;;;;-2.03;79.46;98338.19;1765796;81;21046;-53
2021/01/31 01:08:11;;;;;;;56.18;37.13;;;;;;;-2.03;79.26;98341.38;1768918;81;21129;-53
2021/01/31 01:10:38;;;;;;;51.75;32.30;;;;;;;-2.09;79.07;98341.31;1772638;81;22335;-53
2021/01/31 01:13:06;;;;;;;41.63;30.65;;;;;;;-2.13;79.10;98345.54;1768810;81;21050;-53
2021/01/31 01:15:33;;;;;;;54.10;36.50;;;;;;;-2.17;78.91;98357.00;1772475;81;21031;-53
2021/01/31 01:18:01;;;;;;;42.98;31.27;;;;;;;-2.21;79.04;98358.02;1768903;81;21570;-53
2021/01/31 01:20:29;;;;;;;47.88;32.20;;;;;;;-2.18;79.11;98368.83;1772218;81;21010;-53
2021/01/31 01:22:57;;;;;;;46.02;30.12;;;;;;;-2.20;78.91;98362.35;1768840;81;21200;-52
2021/01/31 01:25:26;;;;;;;50.60;33.80;;;;;;;-2.22;78.94;98364.45;1772309;81;21050;-53
2021/01/31 01:27:54;;;;;;;45.10;30.52;;;;;;;-2.24;79.01;98370.61;1768780;80;21010;-52
2021/01/31 01:30:25;;;;;;;34.80;24.50;;;;;;;-2.26;78.91;98371.36;1772257;81;21085;-53
2021/01/31 01:32:54;;;;;;;34.55;23.55;;;;;;;-2.25;78.94;98367.63;1768611;81;21022;-52
2021/01/31 01:35:23;;;;;;;29.80;21.23;;;;;;;-2.27;78.83;98378.63;1772310;81;22045;-53
2021/01/31 01:37:51;;;;;;;29.18;21.55;;;;;;;-2.33;78.55;98377.41;1768664;80;21074;-53
2021/01/31 01:40:24;;;;;;;28.52;20.65;;;;;;;-2.36;78.60;98383.27;1772534;81;21046;-52
2021/01/31 01:42:51;;;;;;;27.67;19.70;;;;;;;-2.38;78.67;98386.73;1768045;80;21088;-53
2021/01/31 01:45:19;;;;;;;26.82;18.90;;;;;;;-2.40;78.69;98400.93;1772271;81;21051;-53
2021/01/31 01:47:50;;;;;;;26.25;19.35;;;;;;;-2.42;78.77;98403.05;1768958;81;21194;-52
2021/01/31 01:50:36;;;;;;;25.65;18.80;;;;;;;-2.45;78.74;98409.18;1772106;81;21062;-52
2021/01/31 01:53:06;;;;;;;28.00;18.73;;;;;;;-2.51;78.82;98412.83;1768921;81;20995;-53
2021/01/31 01:55:38;;;;;;;28.80;21.40;;;;;;;-2.51;79.05;98418.20;1772340;81;20995;-52
2021/01/31 01:58:15;;;;;;;26.55;18.67;;;;;;;-2.49;78.99;98416.08;1768831;81;21656;-53
2021/01/31 02:00:45;;;;;;;25.32;18.85;;;;;;;-2.49;79.01;98424.15;1772244;81;39273;-52
2021/01/31 02:03:24;;;;;;;23.35;17.17;;;;;;;-2.48;78.99;98424.45;1768675;80;21043;-52
2021/01/31 02:06:01;;;;;;;25.57;18.85;;;;;;;-2.50;78.92;98433.28;1765704;80;21047;-52
2021/01/31 02:08:29;;;;;;;23.60;17.32;;;;;;;-2.53;78.95;98441.83;1818902;78;21101;-52
2021/01/31 02:10:56;;;;;;;23.30;17.62;;;;;;;-2.56;79.07;98449.53;1818794;78;21097;-52
2021/01/31 02:13:24;;;;;;;21.15;16.12;;;;;;;-2.60;79.15;98454.58;1818633;78;21139;-52
2021/01/31 02:15:56;;;;;;;20.80;15.03;;;;;;;-2.60;79.07;98462.64;1818607;78;21019;-52
2021/01/31 02:18:31;;;;;;;24.63;15.90;;;;;;;-2.63;79.11;98473.84;1818680;78;21060;-52
2021/01/31 02:21:24;;;;;;;19.98;15.58;;;;;;;-2.65;79.29;98474.08;1818567;78;20978;-52
2021/01/31 02:24:29;;;;;;;22.15;15.53;;;;;;;-2.69;79.45;98480.97;1818593;78;21019;-52
2021/01/31 02:27:34;;;;;;;21.75;15.45;;;;;;;-2.69;79.33;98482.85;1818208;78;21342;-53
2021/01/31 02:30:56;;;;;;;16.30;12.75;;;;;;;-2.75;79.41;98491.32;1818555;78;20994;-52
2021/01/31 02:34:00;;;;;;;18.77;14.60;;;;;;;-2.74;79.53;98492.13;1818597;78;21415;-53
2021/01/31 02:37:02;;;;;;;16.50;13.30;;;;;;;-2.74;79.63;98496.16;1818817;78;21002;-52
2021/01/31 02:40:03;;;;;;;16.07;12.55;;;;;;;-2.73;79.72;98495.11;1818836;78;20955;-53
2021/01/31 02:42:41;;;;;;;16.95;13.15;;;;;;;-2.71;79.79;98506.47;1818046;78;21248;-53
2021/01/31 02:45:22;;;;;;;16.15;12.53;;;;;;;-2.72;79.89;98516.38;1818701;78;21057;-52
2021/01/31 02:47:58;;;;;;;15.35;13.13;;;;;;;-2.74;79.85;98533.27;1818624;78;21026;-53
2021/01/31 02:50:29;;;;;;;;;;;;;;;-2.73;79.98;98538.11;1821585;78;21006;-53
2021/01/31 02:53:20;;;;;;;16.25;11.78;;;;;;;-2.79;80.40;98534.48;1825215;78;20170;-52
2021/01/31 02:55:54;;;;;;;13.35;11.33;;;;;;;-2.80;80.68;98540.39;1818761;78;22079;-52
2021/01/31 02:58:25;;;;;;;15.88;12.70;;;;;;;-2.79;80.74;98548.76;1818633;78;21088;-52
2021/01/31 03:01:03;;;;;;;16.48;12.03;;;;;;;-2.81;80.85;98544.66;1818750;78;21030;-52
2021/01/31 03:03:35;;;;;;;14.75;11.05;;;;;;;-2.77;80.78;98540.46;1818335;78;21589;-52
2021/01/31 03:06:04;;;;;;;16.73;12.33;;;;;;;-2.76;80.70;98553.36;1829671;78;21002;-52
2021/01/31 03:08:36;;;;;;;14.30;11.40;;;;;;;-2.80;80.60;98559.20;1769056;81;22146;-52
2021/01/31 03:11:32;;;;;;;16.17;12.05;;;;;;;-2.82;80.47;98581.44;1771851;80;21192;-52
2021/01/31 03:14:07;;;;;;;14.45;12.25;;;;;;;-2.83;80.43;98583.86;1768285;80;21011;-52
2021/01/31 03:16:57;;;;;;;14.00;11.78;;;;;;;-2.84;80.43;98594.30;1772487;81;20956;-52
2021/01/31 03:19:30;;;;;;;22.20;11.00;;;;;;;-2.82;80.39;98612.88;1769061;81;21054;-54
2021/01/31 03:22:10;;;;;;;16.52;12.47;;;;;;;-2.78;80.33;98621.58;1846742;76;28717;-52
2021/01/31 03:24:45;;;;;;;16.67;11.93;;;;;;;-2.86;80.28;98638.05;1816490;79;21053;-52
2021/01/31 03:27:38;;;;;;;21.87;19.57;;;;;;;-2.93;80.32;98636.50;1816896;78;21187;-52
2021/01/31 03:30:08;;;;;;;13.65;12.05;;;;;;;-2.96;80.44;98647.17;1816506;79;21014;-52
2021/01/31 03:32:59;;;;;;;14.28;12.15;;;;;;;-2.94;80.61;98658.52;1816664;79;21557;-52
2021/01/31 03:35:41;;;;;;;18.98;14.55;;;;;;;-2.90;80.49;98664.24;1816754;79;20954;-53
2021/01/31 03:38:45;;;;;;;13.40;11.57;;;;;;;-2.84;80.51;98678.12;1888827;76;28240;-52
2021/01/31 03:41:19;;;;;;;15.18;11.48;;;;;;;-2.90;80.42;98681.20;1859881;77;21609;-53
2021/01/31 03:43:46;;;;;;;12.35;10.63;;;;;;;-2.89;80.51;98690.07;1826930;77;22150;-52
2021/01/31 03:46:37;;;;;;;17.67;12.35;;;;;;;-2.85;80.60;98691.25;1859571;77;20977;-52
2021/01/31 03:49:24;;;;;;;15.75;11.70;;;;;;;-2.81;80.53;98695.94;1859308;77;20966;-52
2021/01/31 03:51:52;;;;;;;13.03;11.28;;;;;;;-2.79;80.60;98701.08;1859388;77;21738;-52
2021/01/31 03:54:20;;;;;;;15.40;12.55;;;;;;;-2.71;80.59;98694.58;1859741;77;21432;-52
2021/01/31 03:56:54;;;;;;;14.38;12.15;;;;;;;-2.68;80.38;98700.30;1859602;77;21284;-53
2021/01/31 03:59:26;;;;;;;15.50;11.20;;;;;;;-2.65;80.28;98717.84;1859361;77;20989;-53
2021/01/31 04:01:54;;;;;;;15.55;12.63;;;;;;;-2.62;80.07;98706.63;1859612;77;21025;-53
2021/01/31 04:04:37;;;;;;;16.02;12.50;;;;;;;-2.59;80.01;98714.77;1792795;78;21025;-53
2021/01/31 04:07:06;;;;;;;15.65;12.65;;;;;;;-2.59;79.73;98734.39;1825998;78;21028;-53
2021/01/31 04:09:39;;;;;;;16.52;12.88;;;;;;;-2.63;79.79;98735.89;1825979;78;21370;-52
2021/01/31 04:12:10;;;;;;;15.40;11.93;;;;;;;-2.64;79.62;98737.77;1825890;78;21070;-54
2021/01/31 04:14:47;;;;;;;18.67;13.95;;;;;;;-2.63;79.63;98746.64;1825775;78;21021;-53
2021/01/31 04:17:14;;;;;;;18.07;12.73;;;;;;;-2.62;79.43;98756.36;1826087;78;21029;-53
2021/01/31 04:19:42;;;;;;;15.98;12.45;;;;;;;-2.62;79.29;98763.88;1825936;78;21016;-52
2021/01/31 04:22:10;;;;;;;14.10;11.68;;;;;;;-2.62;79.15;98761.73;1825930;78;21190;-52
2021/01/31 04:24:38;;;;;;;16.42;14.28;;;;;;;-2.62;79.13;98765.77;1826029;78;20997;-53
2021/01/31 04:27:06;;;;;;;13.85;11.70;;;;;;;-2.60;79.04;98773.09;1825798;78;20981;-53
2021/01/31 04:29:34;;;;;;;15.60;11.78;;;;;;;-2.56;79.12;98782.31;1825886;78;21040;-53
2021/01/31 04:32:03;;;;;;;16.48;11.43;;;;;;;-2.52;79.03;98783.50;1825775;78;21044;-53
2021/01/31 04:34:31;;;;;;;15.08;11.60;;;;;;;-2.49;78.77;98777.66;1825955;78;21368;-53
2021/01/31 04:36:58;;;;;;;16.23;12.13;;;;;;;-2.49;78.71;98788.95;1825779;78;21025;-54
2021/01/31 04:39:26;;;;;;;18.32;15.18;;;;;;;-2.52;78.69;98798.29;1825889;78;20981;-51
2021/01/31 04:41:53;;;;;;;16.50;12.73;;;;;;;-2.50;78.60;98803.44;1825909;78;21013;-52
2021/01/31 04:44:21;;;;;;;15.93;12.50;;;;;;;-2.53;78.64;98813.30;1825859;78;20981;-52
2021/01/31 04:47:06;;;;;;;17.60;12.47;;;;;;;-2.50;78.86;98814.19;1825999;78;21202;-52
2021/01/31 04:49:58;;;;;;;17.05;12.95;;;;;;;-2.45;78.78;98823.22;1825328;78;21056;-51
2021/01/31 04:53:04;;;;;;;15.88;12.07;;;;;;;-2.40;78.63;98833.81;1825464;78;20989;-52
2021/01/31 04:56:08;;;;;;;16.12;12.43;;;;;;;-2.39;78.44;98842.19;1825160;78;21081;-52
2021/01/31 04:58:41;;;;;;;17.80;12.18;;;;;;;-2.39;78.41;98851.59;1825546;78;20926;-53
2021/01/31 05:01:24;;;;;;;18.17;13.85;;;;;;;-2.38;78.32;98850.56;1820331;78;21494;-53
2021/01/31 05:04:12;;;;;;;17.05;13.35;;;;;;;-2.36;78.13;98852.48;1825322;77;21056;-53
2021/01/31 05:06:50;;;;;;;20.70;14.38;;;;;;;-2.39;78.11;98856.44;1825442;78;21037;-53
2021/01/31 05:09:27;;;;;;;18.73;14.20;;;;;;;-2.40;78.01;98856.67;1825176;78;21477;-52
2021/01/31 05:12:14;;;;;;;21.97;14.98;;;;;;;-2.42;78.00;98864.97;1825385;78;20973;-53
2021/01/31 05:15:01;;;;;;;23.32;15.65;;;;;;;-2.45;77.93;98860.86;1825123;78;21149;-52
2021/01/31 05:17:28;;;;;;;25.92;16.85;;;;;;;-2.49;77.96;98879.83;1825327;78;28208;-52
2021/01/31 05:19:57;;;;;;;24.55;15.83;;;;;;;-2.53;77.89;98885.39;1825316;78;21040;-52
2021/01/31 05:22:28;;;;;;;22.52;17.30;;;;;;;-2.57;78.02;98886.03;1825200;78;21017;-53
2021/01/31 05:24:56;;;;;;;23.20;16.65;;;;;;;-2.59;78.21;98893.52;1825116;78;20993;-53
2021/01/31 05:27:29;;;;;;;28.32;18.00;;;;;;;-2.61;78.28;98892.41;1825405;78;21370;-53
2021/01/31 05:29:57;;;;;;;24.55;15.28;;;;;;;-2.59;78.45;98914.49;1825315;78;21008;-53
2021/01/31 05:32:24;;;;;;;25.82;17.57;;;;;;;-2.57;78.43;98921.83;1825329;78;21024;-53
2021/01/31 05:34:56;;;;;;;23.42;16.05;;;;;;;-2.53;78.32;98918.99;1825287;78;21020;-52
2021/01/31 05:37:30;;;;;;;24.00;17.30;;;;;;;-2.47;78.39;98923.45;1825121;78;20986;-52
2021/01/31 05:40:08;;;;;;;21.90;15.30;;;;;;;-2.42;78.25;98932.72;1822633;78;22128;-52
2021/01/31 05:42:41;;;;;;;28.07;16.35;;;;;;;-2.34;78.02;98945.87;1825438;78;21604;-52
2021/01/31 05:45:23;;;;;;;22.93;17.70;;;;;;;-2.31;77.68;98948.11;1825243;78;21659;-53
2021/01/31 05:47:51;;;;;;;23.45;16.25;;;;;;;-2.37;77.56;98951.17;1825196;78;21001;-53
2021/01/31 05:50:43;;;;;;;26.37;18.85;;;;;;;-2.36;77.62;98958.70;1825452;78;21663;-53
2021/01/31 05:53:34;;;;;;;28.15;17.85;;;;;;;-2.40;77.58;98953.47;1825108;78;21841;-53
2021/01/31 05:56:27;;;;;;;21.57;15.15;;;;;;;-2.45;77.58;98959.00;1825225;78;21056;-53
2021/01/31 05:59:09;;;;;;;27.75;19.00;;;;;;;-2.46;77.74;98974.02;1820344;78;21017;-53
2021/01/31 06:02:00;;;;;;;24.55;16.95;;;;;;;-2.44;77.94;98970.06;1825265;78;20945;-53
2021/01/31 06:04:28;;;;;;;24.65;16.75;;;;;;;-2.35;77.88;98975.95;1815128;78;21017;-53
2021/01/31 06:07:11;;;;;;;25.55;16.85;;;;;;;-2.26;77.82;98975.13;1825064;78;21621;-53
2021/01/31 06:09:50;;;;;;;21.57;15.05;;;;;;;-2.17;77.68;98979.67;1825394;78;21056;-54
2021/01/31 06:12:24;;;;;;;23.65;14.83;;;;;;;-2.13;77.51;98988.44;1825389;78;21013;-54
2021/01/31 06:15:10;;;;;;;17.70;12.95;;;;;;;-2.08;77.27;98991.78;1825197;78;21552;-53
2021/01/31 06:17:37;;;;;;;26.07;18.20;;;;;;;-2.11;77.01;99001.13;1825708;78;21465;-52
2021/01/31 06:20:28;;;;;;;27.45;18.32;;;;;;;-2.16;77.04;99005.03;1825159;78;21025;-53
2021/01/31 06:22:55;;;;;;;34.40;23.57;;;;;;;-2.18;77.19;99011.14;1825284;78;21531;-53
2021/01/31 06:25:31;;;;;;;32.70;25.55;;;;;;;-2.16;77.06;99026.55;1825139;78;21017;-53
2021/01/31 06:28:20;;;;;;;28.90;20.30;;;;;;;-2.13;77.12;99033.33;1825241;78;21041;-53
2021/01/31 06:31:15;;;;;;;28.27;20.95;;;;;;;-2.12;77.11;99027.72;1824471;78;21033;-53
2021/01/31 06:33:43;;;;;;;28.00;18.32;;;;;;;-2.12;77.06;99033.10;1825361;78;21700;-53
2021/01/31 06:36:47;;;;;;;23.10;17.07;;;;;;;-2.17;77.08;99046.92;1825263;78;20953;-53
2021/01/31 06:39:38;;;;;;;25.82;16.55;;;;;;;-2.16;77.20;99046.73;1825208;78;20982;-53
2021/01/31 06:42:26;;;;;;;24.47;16.60;;;;;;;-2.16;77.28;99048.08;1825202;78;21017;-53
2021/01/31 06:45:06;;;;;;;29.63;20.40;;;;;;;-2.15;77.24;99056.42;1825183;78;21141;-53
2021/01/31 06:47:45;;;;;;;28.80;20.60;;;;;;;-2.15;77.39;99060.45;1825361;78;21389;-53
2021/01/31 06:50:33;;;;;;;28.27;19.75;;;;;;;-2.13;77.44;99065.11;1825168;78;21001;-53
2021/01/31 06:53:38;;;;;;;27.67;18.70;;;;;;;-2.15;77.61;99067.19;1825256;78;21012;-53
2021/01/31 06:56:32;;;;;;;22.95;16.67;;;;;;;-2.16;77.77;99074.98;1825047;78;20953;-53
2021/01/31 06:59:26;;;;;;;23.65;15.28;;;;;;;-2.16;77.83;99062.87;1810212;78;21060;-53
2021/01/31 07:02:11;;;;;;;25.48;16.87;;;;;;;-2.10;78.00;99070.54;1810220;78;21201;-53
2021/01/31 07:05:10;;;;;;;25.90;16.97;;;;;;;-2.02;77.62;99074.29;1790835;78;21680;-52
2021/01/31 07:07:54;;;;;;;27.80;16.73;;;;;;;-2.01;77.79;99075.94;1825133;78;21029;-52
2021/01/31 07:11:06;;;;;;;25.12;18.00;;;;;;;-1.88;77.69;99073.62;1825384;78;26586;-52
2021/01/31 07:14:05;;;;;;;27.98;19.17;;;;;;;-1.78;77.34;99081.98;1767017;78;21118;-52
2021/01/31 07:17:02;;;;;;;27.05;19.27;;;;;;;-1.70;77.10;99083.56;1825445;78;21199;-52
2021/01/31 07:19:44;;;;;;;26.10;17.82;;;;;;;-1.68;76.94;99089.53;1824682;78;21053;-53
2021/01/31 07:22:16;;;;;;;26.00;18.27;;;;;;;-1.64;76.24;99093.95;1825238;78;21028;-53
2021/01/31 07:25:06;;;;;;;29.70;18.60;;;;;;;-1.66;75.97;99110.84;1824146;78;21687;-53
2021/01/31 07:27:56;;;;;;;23.83;16.80;;;;;;;-1.68;76.10;99115.64;1825359;78;21012;-53
2021/01/31 07:30:38;;;;;;;30.17;19.10;;;;;;;-1.70;75.67;99119.06;1824168;78;22640;-53
2021/01/31 07:33:38;;;;;;;26.23;18.48;;;;;;;-1.72;75.48;99124.67;1825088;78;21025;-53
2021/01/31 07:36:23;;;;;;;28.70;20.25;;;;;;;-1.67;75.42;99129.38;1824995;78;21017;-53
2021/01/31 07:38:59;;;;;;;26.10;17.27;;;;;;;-1.59;75.35;99135.81;1823618;78;21041;-51
2021/01/31 07:41:27;;;;;;;25.45;17.73;;;;;;;-1.54;75.29;99137.32;1823461;78;21032;-53
2021/01/31 07:44:02;;;;;;;30.57;20.60;;;;;;;-1.49;74.79;99140.14;1823074;78;21315;-52
2021/01/31 07:46:30;;;;;;;26.25;16.05;;;;;;;-1.43;74.89;99149.19;1822943;78;21020;-52
2021/01/31 07:49:01;;;;;;;32.10;20.90;;;;;;;-1.37;74.28;99151.50;1823219;78;21572;-53
2021/01/31 07:51:38;;;;;;;31.40;19.73;;;;;;;-1.37;74.42;99156.38;1823043;78;21067;-53
2021/01/31 07:54:27;;;;;;;28.45;17.57;;;;;;;-1.36;74.08;99159.35;1823148;78;20961;-54
2021/01/31 07:56:56;;;;;;;29.10;17.92;;;;;;;-1.32;74.03;99177.25;1823069;78;21438;-53
2021/01/31 07:59:28;;;;;;;29.70;20.02;;;;;;;-1.24;73.75;99171.56;1823103;78;20993;-53
2021/01/31 08:01:58;;;;;;;24.90;17.32;;;;;;;-1.23;73.37;99179.92;1823062;78;20997;-53
2021/01/31 08:04:42;;;;;;;27.40;17.12;;;;;;;-1.17;73.11;99187.63;1823204;77;21005;-53
2021/01/31 08:07:09;;;;;;;29.35;18.57;;;;;;;-1.11;72.58;99190.77;1822962;78;21100;-52
2021/01/31 08:09:42;;;;;;;25.70;16.40;;;;;;;-1.09;72.59;99193.52;1823075;78;23598;-52
2021/01/31 08:12:14;;;;;;;24.85;17.65;;;;;;;-1.03;72.14;99207.14;1823136;78;21521;-53
2021/01/31 08:15:31;;;;;;;28.02;18.48;;;;;;;-1.05;71.44;99200.09;1823122;78;20938;-52
2021/01/31 08:18:08;;;;;;;32.17;20.27;;;;;;;-1.12;71.36;99216.06;1823211;78;21056;-54
2021/01/31 08:20:45;;;;;;;25.62;17.62;;;;;;;-1.13;71.15;99215.77;1823131;78;21067;-54
2021/01/31 08:23:27;;;;;;;28.45;18.62;;;;;;;-1.05;71.46;99229.75;1823231;78;22142;-52
2021/01/31 08:26:02;;;;;;;27.60;18.85;;;;;;;-0.95;70.75;99222.47;1823290;78;21009;-52
2021/01/31 08:28:32;;;;;;;;;;;;;;;-0.94;71.20;99225.48;1826061;78;20978;-53
2021/01/31 08:31:09;;;;;;;32.23;19.50;;;;;;;-0.81;71.17;99223.13;1823340;78;20191;-52
2021/01/31 08:33:44;;;;;;;25.65;16.77;;;;;;;-0.73;70.83;99232.25;1823322;78;20970;-52
2021/01/31 08:36:22;;;;;;;27.05;17.92;;;;;;;-0.70;70.45;99235.84;1823526;78;22117;-53
2021/01/31 08:38:52;;;;;;;25.20;19.30;;;;;;;-0.68;70.07;99235.61;1809151;78;21845;-52
2021/01/31 08:41:38;;;;;;;22.67;15.80;;;;;;;-0.65;70.19;99236.48;1798558;79;20977;-53
2021/01/31 08:44:17;;;;;;;26.45;15.78;;;;;;;-0.59;69.81;99234.22;1798329;79;21014;-53
2021/01/31 08:47:01;;;;;;;26.35;15.43;;;;;;;-0.54;69.70;99233.55;1798489;79;20973;-52
2021/01/31 08:49:29;;;;;;;24.47;17.27;;;;;;;-0.49;69.00;99242.30;1798457;79;21378;-53
2021/01/31 08:52:09;;;;;;;24.52;17.02;;;;;;;-0.47;68.12;99246.41;1798347;79;21000;-53
2021/01/31 08:54:38;;;;;;;23.15;15.48;;;;;;;-0.38;67.74;99250.95;1796140;79;21636;-53
2021/01/31 08:57:12;;;;;;;21.85;15.68;;;;;;;-0.05;67.28;99265.27;1798156;79;20941;-53
2021/01/31 08:59:47;;;;;;;22.15;15.50;;;;;;;0.28;66.63;99265.25;1798355;79;21475;-53
2021/01/31 09:02:24;;;;;;;27.37;15.83;;;;;;;0.53;65.86;99263.38;1798420;79;21559;-53
2021/01/31 09:04:59;;;;;;;20.72;15.25;;;;;;;0.86;65.37;99273.58;1798397;79;21033;-53
2021/01/31 09:07:45;;;;;;;27.50;18.02;;;;;;;1.07;63.39;99275.34;1798366;79;21028;-53
2021/01/31 09:10:36;;;;;;;18.48;11.78;;;;;;;1.16;63.37;99280.69;1798402;79;21048;-53
2021/01/31 09:13:14;;;;;;;19.23;13.22;;;;;;;1.27;61.72;99277.13;1798434;79;21025;-53
2021/01/31 09:15:43;;;;;;;21.30;14.15;;;;;;;1.49;60.80;99273.75;1798418;79;21194;-53
2021/01/31 09:18:19;;;;;;;24.63;15.53;;;;;;;1.56;61.01;99278.48;1798232;79;21029;-54
2021/01/31 09:20:48;;;;;;;21.37;14.83;;;;;;;1.82;60.55;99277.05;1798784;79;21104;-54
2021/01/31 09:23:21;;;;;;;20.55;14.63;;;;;;;2.25;60.14;99276.13;1798358;79;21032;-54
2021/01/31 09:25:48;;;;;;;19.20;13.83;;;;;;;2.70;58.55;99277.06;1798500;79;21583;-53
2021/01/31 09:28:23;;;;;;;21.73;13.93;;;;;;;3.11;57.74;99285.23;1798589;79;21176;-53
2021/01/31 09:31:00;;;;;;;19.37;13.18;;;;;;;3.61;56.88;99287.95;1798540;79;20950;-52
2021/01/31 09:33:40;;;;;;;18.70;12.28;;;;;;;3.98;53.71;99306.25;1798334;79;21556;-53
2021/01/31 09:36:19;;;;;;;18.42;13.48;;;;;;;3.55;53.51;99305.27;1798299;79;21044;-53
2021/01/31 09:38:48;;;;;;;20.80;15.13;;;;;;;3.38;54.27;99307.52;1806484;78;21571;-53
2021/01/31 09:41:18;;;;;;;20.23;14.55;;;;;;;3.34;54.36;99306.92;1823306;78;22115;-53
2021/01/31 09:43:46;;;;;;;21.00;15.00;;;;;;;2.92;54.64;99323.22;1823198;78;21604;-53
2021/01/31 09:46:15;;;;;;;20.92;14.13;;;;;;;2.43;55.80;99322.50;1823236;78;21013;-53
2021/01/31 09:48:42;;;;;;;21.10;12.58;;;;;;;2.19;56.24;99323.19;1823187;78;21029;-53
2021/01/31 09:51:18;;;;;;;15.43;10.63;;;;;;;2.23;56.35;99333.28;1823113;78;21789;-54
2021/01/31 09:53:53;;;;;;;14.45;9.30;;;;;;;2.54;55.07;99337.02;1873615;75;22970;-52
2021/01/31 09:56:41;;;;;;;15.65;10.58;;;;;;;2.48;54.20;99327.98;1813854;78;21438;-53
2021/01/31 09:59:29;;;;;;;15.23;10.75;;;;;;;2.42;53.84;99335.20;1818666;78;21827;-52
2021/01/31 10:02:20;;;;;;;17.85;14.25;;;;;;;2.50;54.38;99334.51;1818617;78;21073;-52
2021/01/31 10:04:56;;;;;;;13.45;10.68;;;;;;;2.76;52.80;99332.48;1786569;80;20986;-53
2021/01/31 10:07:32;;;;;;;13.20;9.08;;;;;;;3.27;51.87;99343.23;1786595;80;20986;-54
2021/01/31 10:10:26;;;;;;;15.32;10.35;;;;;;;3.77;50.64;99344.09;1786466;80;20954;-54
2021/01/31 10:13:31;;;;;;;13.18;9.48;;;;;;;4.36;48.86;99345.20;1786325;80;21130;-53
2021/01/31 10:16:01;;;;;;;15.20;8.45;;;;;;;4.60;47.98;99355.70;1786316;80;21113;-53
2021/01/31 10:18:34;;;;;;;11.85;8.13;;;;;;;4.37;46.67;99356.33;1786502;80;21010;-54
2021/01/31 10:21:30;;;;;;;14.93;10.48;;;;;;;4.04;46.74;99347.88;1786440;80;21012;-54
2021/01/31 10:24:06;;;;;;;14.00;9.85;;;;;;;4.23;47.34;99345.61;1786538;80;20938;-54
2021/01/31 10:26:34;;;;;;;14.30;9.55;;;;;;;4.57;46.59;99351.60;1786549;80;21260;-54
2021/01/31 10:29:04;;;;;;;23.15;13.43;;;;;;;4.88;46.12;99359.19;1786320;80;21006;-53
2021/01/31 10:31:37;;;;;;;16.80;11.35;;;;;;;5.00;46.86;99354.35;1786415;80;21033;-53
2021/01/31 10:34:09;;;;;;;16.48;10.43;;;;;;;5.24;46.40;99367.56;1755832;80;20946;-54
2021/01/31 10:36:43;;;;;;;14.55;9.70;;;;;;;5.47;45.04;99364.43;1786580;80;20997;-53
2021/01/31 10:39:16;;;;;;;15.43;10.60;;;;;;;5.40;45.09;99372.02;1786401;80;21365;-53
2021/01/31 10:41:45;;;;;;;16.52;12.00;;;;;;;5.40;45.30;99371.19;1786513;80;21025;-53
2021/01/31 10:44:23;;;;;;;14.85;10.65;;;;;;;5.25;45.28;99374.66;1786359;80;20978;-53
2021/01/31 10:46:50;;;;;;;15.63;10.58;;;;;;;5.03;45.19;99383.79;1786464;80;21013;-53
2021/01/31 10:49:18;;;;;;;14.47;10.05;;;;;;;4.83;46.03;99375.75;1786468;80;21008;-53
2021/01/31 10:51:46;;;;;;;13.53;9.70;;;;;;;5.12;45.52;99376.75;1786260;80;21190;-52
2021/01/31 10:54:15;;;;;;;11.53;8.63;;;;;;;5.48;45.26;99381.58;1789742;80;20946;-53
2021/01/31 10:56:43;;;;;;;12.65;8.70;;;;;;;5.85;43.71;99386.89;1789588;80;21001;-54
2021/01/31 10:59:11;;;;;;;12.20;8.08;;;;;;;5.96;43.79;99382.31;1789710;80;21044;-54
2021/01/31 11:01:47;;;;;;;20.75;14.13;;;;;;;6.38;42.85;99391.41;1789658;80;20989;-54
2021/01/31 11:04:15;;;;;;;30.27;18.92;;;;;;;7.01;41.85;99393.86;1789478;80;21523;-54
2021/01/31 11:06:45;;;;;;;17.15;11.53;;;;;;;6.85;41.99;99408.08;1789172;80;21037;-54
2021/01/31 11:09:16;;;;;;;27.20;15.48;;;;;;;6.59;42.45;99397.71;1788971;80;21528;-53
2021/01/31 11:11:44;;;;;;;19.35;12.95;;;;;;;6.66;41.88;99403.72;1788619;80;21025;-54
2021/01/31 11:14:11;;;;;;;24.67;15.90;;;;;;;7.04;41.95;99403.42;1789147;80;20969;-53
2021/01/31 11:16:39;;;;;;;14.40;9.65;;;;;;;7.35;40.95;99408.28;1789209;80;22195;-54
2021/01/31 11:19:07;;;;;;;11.18;8.60;;;;;;;7.06;40.33;99402.61;1789193;80;21041;-53
2021/01/31 11:21:37;;;;;;;10.05;7.35;;;;;;;6.45;41.47;99420.61;1789193;80;21134;-54
2021/01/31 11:24:08;;;;;;;10.25;8.05;;;;;;;5.75;41.46;99410.02;1789034;80;21635;-52
2021/01/31 11:26:35;;;;;;;11.48;8.45;;;;;;;4.95;42.30;99413.66;1789344;80;21111;-54
2021/01/31 11:29:03;;;;;;;13.38;9.05;;;;;;;4.78;43.81;99423.86;1789182;80;21207;-53
2021/01/31 11:31:31;;;;;;;13.40;9.28;;;;;;;4.85;43.68;99422.55;1789014;80;21017;-52
2021/01/31 11:33:59;;;;;;;17.02;8.80;;;;;;;4.99;44.08;99425.66;1789142;80;20997;-53
2021/01/31 11:36:26;;;;;;;31.10;16.85;;;;;;;4.85;42.87;99418.47;1789276;80;20994;-53
2021/01/31 11:38:57;;;;;;;18.60;11.50;;;;;;;4.40;43.20;99430.61;1788956;80;20997;-53
2021/01/31 11:41:24;;;;;;;22.82;12.33;;;;;;;3.87;43.93;99419.96;1789282;80;21218;-53
2021/01/31 11:43:52;;;;;;;26.93;13.08;;;;;;;3.35;44.26;99431.52;1788975;80;21596;-53
2021/01/31 11:46:19;;;;;;;36.00;17.70;;;;;;;2.89;46.01;99437.63;1789262;80;21009;-53
2021/01/31 11:48:46;;;;;;;25.68;14.53;;;;;;;2.55;47.02;99433.00;1789339;80;21021;-54
2021/01/31 11:51:14;;;;;;;19.92;11.78;;;;;;;2.41;47.73;99442.00;1789064;80;21636;-53
2021/01/31 11:53:42;;;;;;;18.85;10.93;;;;;;;2.35;48.32;99448.37;1789057;80;21505;-53
2021/01/31 11:56:11;;;;;;;20.05;10.72;;;;;;;2.28;48.50;99446.34;1789067;80;21069;-53
2021/01/31 11:58:39;;;;;;;16.50;9.88;;;;;;;2.11;48.40;99444.13;1789083;80;21020;-52
2021/01/31 12:01:06;;;;;;;22.27;12.00;;;;;;;1.95;48.50;99440.30;1789021;80;21017;-53